Terminal Aerodrome Forecast
Issued by NWS Sioux Falls, SD

Home | Current Version | Previous Version | Graphics & Text | Print | Product List | Glossary Off
Versions: 1 2 3 4 5 6 7 8 9 10 11 12 13 14 15 16 17

000
FTUS43 KFSD 111700 RRA
TAFHON
TAF
KHON 111743Z 1118/1218 35008KT P6SM SKC
     FM112200 05008KT P6SM SCT060
     FM120100 VRB04KT P6SM BKN200
     FM121200 07010KT P6SM SCT030 BKN150=

USA.gov is the U.S. government's official web portal to all federal, state and local government web resources and services.